Portada
METAR-TAF:

METAR-TAF

Aeropuertos :

Manhattan, Kansas, Estados Unidos

latitud: 39-08-07N, longitud: 096-40-40W, altitud: 321 m

Observación

El informe se hizo hace 12 minutos, a las 00:52 UTC
Viento calma
Temperatura 14°C
Humedad 33%
Presión 1019 hPa
Visibilidad: 16.1 km
Cielo despejado

METAR: KMHK 300052Z 00000KT 10SM CLR 14/M02 A3008 RMK AO2 SLP189 T01441017

Hora: 20:04 (01:04 UTC)

Pronóstico

El informe se hizo hace 1 hora y 29 minutos, a las 23:35 UTC
Pronóstico válido del 30 a las 00 UTC al 30 a las 24 UTC
Viento 8 kt del oeste
Visibilidad: 10 km
Cielo despejado
A partir de las 30 a las 1400 UTC
Viento 11 kt del sureste
Visibilidad: 10 km
Escasas nubes a una altura de 25000 ft

TAF: KMHK 292335Z 3000/3024 28008KT P6SM SKC FM301400 13011KT P6SM FEW250

Observaciones y pronósticos meteorológicos de más de 4000 aeropuertos (mensajes METAR y TAF).

Los puntos amarillos y rojos representan las estaciones disponibles.

Ponga el ratón en el punto deseado para ver el nombre de la estación.

Haga clic para ver las observaciones y los pronósticos meteorológicos.

Para cambiar el mapa : haga clic en los botones verdes con una cruz de color negro para hacer un zoom, en el botón verde con un guión para alejar o en las flechas verdes para mapas adyacentes.


METAR-TAF: